Time,TemperatureF,DewpointF,PressureIn,WindDirection,WindDirectionDegrees,WindSpeedMPH,WindSpeedGustMPH,Humidity,HourlyPrecipIn,Conditions,Clouds,dailyrainin,SoftwareType,DateUTC
2013-01-26 00:23:00,57.0,55.0,29.99,North,-999,0.0,0.0,94,0.01,,,-99.99,,2013-01-26 05:23:00,
2013-01-26 00:33:00,57.0,55.0,29.99,North,-999,0.0,0.0,94,0.01,,,-99.99,,2013-01-26 05:33:00,
2013-01-26 00:41:00,57.0,55.0,29.99,North,-999,0.0,0.0,94,0.01,,,-99.99,,2013-01-26 05:41:00,
2013-01-26 01:21:00,57.0,55.0,29.98,West,280,8.0,9.0,94,0.01,,,-99.99,,2013-01-26 06:21:00,
2013-01-26 01:31:00,57.0,55.0,29.98,West,280,8.0,9.0,94,0.01,,,-99.99,,2013-01-26 06:31:00,
2013-01-26 01:41:00,57.0,55.0,29.98,West,280,8.0,9.0,94,0.01,,,-99.99,,2013-01-26 06:41:00,
2013-01-26 02:21:00,57.0,55.0,29.97,North,-999,0.0,0.0,94,0.04,,,-99.99,,2013-01-26 07:21:00,
2013-01-26 02:33:00,57.0,55.0,29.97,North,-999,0.0,0.0,94,0.04,,,-99.99,,2013-01-26 07:33:00,
2013-01-26 02:41:00,57.0,55.0,29.97,North,-999,0.0,0.0,94,0.04,,,-99.99,,2013-01-26 07:41:00,
2013-01-26 03:21:00,56.0,54.0,29.97,North,-999,0.0,0.0,94,0.04,,,-99.99,,2013-01-26 08:21:00,
2013-01-26 03:31:00,56.0,54.0,29.97,North,-999,0.0,0.0,94,0.04,,,-99.99,,2013-01-26 08:31:00,
2013-01-26 03:42:00,56.0,54.0,29.97,North,-999,0.0,0.0,94,0.04,,,-99.99,,2013-01-26 08:42:00,
2013-01-26 04:22:00,57.0,56.0,29.95,North,-999,0.0,0.0,95,0.03,,,-99.99,,2013-01-26 09:22:00,
2013-01-26 04:31:00,57.0,56.0,29.95,North,-999,0.0,0.0,95,0.03,,,-99.99,,2013-01-26 09:31:00,
2013-01-26 04:42:00,57.0,56.0,29.95,North,-999,0.0,0.0,95,0.03,,,-99.99,,2013-01-26 09:42:00,
2013-01-26 05:21:00,57.0,56.0,29.94,North,-999,0.0,0.0,95,0.08,,,-99.99,,2013-01-26 10:21:00,
2013-01-26 05:31:00,57.0,56.0,29.94,North,-999,0.0,0.0,95,0.08,,,-99.99,,2013-01-26 10:31:00,
2013-01-26 05:42:00,57.0,56.0,29.94,North,-999,0.0,0.0,95,0.08,,,-99.99,,2013-01-26 10:42:00,
2013-01-26 06:22:00,56.0,55.0,29.92,North,-999,0.0,0.0,95,0.02,,,-99.99,,2013-01-26 11:22:00,
2013-01-26 06:32:00,56.0,55.0,29.92,North,-999,0.0,0.0,95,0.02,,,-99.99,,2013-01-26 11:32:00,
2013-01-26 06:42:00,56.0,55.0,29.92,North,-999,0.0,0.0,95,0.02,,,-99.99,,2013-01-26 11:42:00,
2013-01-26 07:22:00,56.0,55.0,29.87,North,-999,0.0,0.0,95,0.01,,,-99.99,,2013-01-26 12:22:00,
2013-01-26 07:33:00,56.0,55.0,29.87,North,-999,0.0,0.0,95,0.01,,,-99.99,,2013-01-26 12:33:00,
2013-01-26 07:42:00,56.0,55.0,29.87,North,-999,0.0,0.0,95,0.01,,,-99.99,,2013-01-26 12:42:00,
2013-01-26 08:22:00,56.0,55.0,29.86,North,-999,0.0,0.0,96,0.00,,,-99.99,,2013-01-26 13:22:00,
2013-01-26 08:32:00,56.0,55.0,29.86,North,-999,0.0,0.0,96,0.00,,,-99.99,,2013-01-26 13:32:00,
2013-01-26 08:42:00,56.0,55.0,29.86,North,-999,0.0,0.0,96,0.00,,,-99.99,,2013-01-26 13:42:00,
2013-01-26 09:21:00,56.0,55.0,29.86,North,-999,0.0,0.0,96,0.00,,,-99.99,,2013-01-26 14:21:00,
2013-01-26 09:32:00,56.0,55.0,29.86,North,-999,0.0,0.0,96,0.00,,,-99.99,,2013-01-26 14:32:00,
2013-01-26 09:42:00,56.0,55.0,29.86,North,-999,0.0,0.0,96,0.00,,,-99.99,,2013-01-26 14:42:00,
2013-01-26 09:43:00,56.0,55.0,29.87,North,-999,0.0,0.0,96,0.00,,,-99.99,,2013-01-26 14:43:00,
2013-01-26 10:22:00,56.0,55.0,29.87,North,-999,0.0,0.0,96,0.00,,,-99.99,,2013-01-26 15:22:00,
2013-01-26 10:32:00,56.0,55.0,29.87,North,-999,0.0,0.0,96,0.00,,,-99.99,,2013-01-26 15:32:00,
2013-01-26 11:22:00,56.0,55.0,29.89,West,280,4.0,7.0,96,0.00,,,-99.99,,2013-01-26 16:22:00,
2013-01-26 11:32:00,56.0,55.0,29.89,West,280,4.0,7.0,96,0.00,,,-99.99,,2013-01-26 16:32:00,
2013-01-26 11:42:00,56.0,55.0,29.89,West,280,4.0,7.0,96,0.00,,,-99.99,,2013-01-26 16:42:00,
2013-01-26 12:22:00,57.0,56.0,29.89,North,-999,0.0,0.0,96,0.00,,,-99.99,,2013-01-26 17:22:00,
2013-01-26 12:32:00,57.0,56.0,29.89,North,-999,0.0,0.0,96,0.00,,,-99.99,,2013-01-26 17:32:00,
2013-01-26 12:42:00,57.0,56.0,29.89,North,-999,0.0,0.0,96,0.00,,,-99.99,,2013-01-26 17:42:00,
2013-01-26 13:22:00,58.0,56.0,29.92,North,0,0.0,6.0,94,0.00,,,-99.99,,2013-01-26 18:22:00,
2013-01-26 13:32:00,58.0,56.0,29.92,North,0,0.0,6.0,94,0.00,,,-99.99,,2013-01-26 18:32:00,
2013-01-26 13:42:00,58.0,56.0,29.92,North,0,0.0,6.0,94,0.00,,,-99.99,,2013-01-26 18:42:00,
2013-01-26 14:22:00,61.0,57.0,29.91,West,280,4.0,10.0,88,0.00,,,-99.99,,2013-01-26 19:22:00,
2013-01-26 14:32:00,61.0,57.0,29.91,West,280,4.0,10.0,88,0.00,,,-99.99,,2013-01-26 19:32:00,
2013-01-26 14:42:00,61.0,57.0,29.91,West,280,4.0,10.0,88,0.00,,,-99.99,,2013-01-26 19:42:00,
2013-01-26 15:21:00,62.0,57.0,29.89,North,0,0.0,6.0,85,0.00,,,-99.99,,2013-01-26 20:21:00,
2013-01-26 15:32:00,62.0,57.0,29.89,North,0,0.0,6.0,85,0.00,,,-99.99,,2013-01-26 20:32:00,
2013-01-26 15:42:00,62.0,57.0,29.89,North,0,0.0,6.0,85,0.00,,,-99.99,,2013-01-26 20:42:00,
2013-01-26 16:22:00,63.0,57.0,29.87,West,280,5.0,11.0,81,0.00,,,-99.99,,2013-01-26 21:22:00,
2013-01-26 16:32:00,63.0,57.0,29.87,West,280,5.0,11.0,81,0.00,,,-99.99,,2013-01-26 21:32:00,
2013-01-26 16:42:00,63.0,57.0,29.87,West,280,5.0,11.0,81,0.00,,,-99.99,,2013-01-26 21:42:00,
2013-01-26 17:21:00,63.0,57.0,29.85,West,280,12.0,14.0,81,0.00,,,-99.99,,2013-01-26 22:21:00,
2013-01-26 17:31:00,63.0,57.0,29.85,West,280,12.0,14.0,81,0.00,,,-99.99,,2013-01-26 22:31:00,
2013-01-26 17:42:00,63.0,57.0,29.85,West,280,12.0,14.0,81,0.00,,,-99.99,,2013-01-26 22:42:00,
2013-01-26 18:21:00,64.0,58.0,29.85,West,280,15.0,16.0,80,0.01,,,-99.99,,2013-01-26 23:21:00,
2013-01-26 18:32:00,64.0,58.0,29.85,West,280,15.0,16.0,80,0.01,,,-99.99,,2013-01-26 23:32:00,
2013-01-26 18:41:00,64.0,58.0,29.85,West,280,15.0,16.0,80,0.01,,,-99.99,,2013-01-26 23:41:00,
2013-01-26 19:21:00,62.0,57.0,29.85,WSW,250,9.0,17.0,84,0.00,,,-99.99,,2013-01-27 00:21:00,
2013-01-26 19:32:00,62.0,57.0,29.85,WSW,250,9.0,17.0,84,0.00,,,-99.99,,2013-01-27 00:32:00,
2013-01-26 19:41:00,62.0,57.0,29.85,WSW,250,9.0,17.0,84,0.00,,,-99.99,,2013-01-27 00:41:00,
2013-01-26 20:22:00,61.0,57.0,29.87,SW,220,6.0,11.0,86,0.00,,,-99.99,,2013-01-27 01:22:00,
2013-01-26 20:32:00,61.0,57.0,29.87,SW,220,6.0,11.0,86,0.00,,,-99.99,,2013-01-27 01:32:00,
2013-01-26 20:41:00,61.0,57.0,29.87,SW,220,6.0,11.0,86,0.00,,,-99.99,,2013-01-27 01:41:00,
2013-01-26 21:21:00,60.0,57.0,29.89,SSW,210,7.0,8.0,89,0.00,,,-99.99,,2013-01-27 02:21:00,
2013-01-26 21:31:00,60.0,57.0,29.89,SSW,210,7.0,8.0,89,0.00,,,-99.99,,2013-01-27 02:31:00,
2013-01-26 21:41:00,60.0,57.0,29.89,SSW,210,7.0,8.0,89,0.00,,,-99.99,,2013-01-27 02:41:00,
2013-01-26 22:21:00,60.0,56.0,29.90,North,0,0.0,8.0,88,0.00,,,-99.99,,2013-01-27 03:21:00,
2013-01-26 22:31:00,60.0,56.0,29.90,North,0,0.0,8.0,88,0.00,,,-99.99,,2013-01-27 03:31:00,
2013-01-26 22:41:00,60.0,56.0,29.90,North,0,0.0,8.0,88,0.00,,,-99.99,,2013-01-27 03:41:00,
2013-01-26 23:21:00,59.0,56.0,29.91,North,-999,0.0,0.0,90,0.00,,,-99.99,,2013-01-27 04:21:00,
2013-01-26 23:31:00,59.0,56.0,29.91,North,-999,0.0,0.0,90,0.00,,,-99.99,,2013-01-27 04:31:00,
2013-01-26 23:41:00,59.0,56.0,29.91,North,-999,0.0,0.0,90,0.00,,,-99.99,,2013-01-27 04:41:00,